sensor_id;sensor_type;location;lat;lon;timestamp;temperature;humidity
17066;DHT22;23120;52.336;21.182;2023-02-01T00:00:28;2.70;99.90
17066;DHT22;23120;52.336;21.182;2023-02-01T00:03:00;2.70;99.90
17066;DHT22;23120;52.336;21.182;2023-02-01T00:05:27;2.70;99.90
17066;DHT22;23120;52.336;21.182;2023-02-01T00:07:54;2.70;99.90
17066;DHT22;23120;52.336;21.182;2023-02-01T00:10:21;2.70;99.90
17066;DHT22;23120;52.336;21.182;2023-02-01T00:12:55;2.70;99.90
17066;DHT22;23120;52.336;21.182;2023-02-01T00:15:25;2.70;99.90
17066;DHT22;23120;52.336;21.182;2023-02-01T00:17:55;2.70;99.90
17066;DHT22;23120;52.336;21.182;2023-02-01T00:20:28;2.70;99.90
17066;DHT22;23120;52.336;21.182;2023-02-01T00:22:55;2.70;99.90
17066;DHT22;23120;52.336;21.182;2023-02-01T00:25:22;2.70;99.90
17066;DHT22;23120;52.336;21.182;2023-02-01T00:27:54;2.70;99.90
17066;DHT22;23120;52.336;21.182;2023-02-01T00:30:24;2.70;99.90
17066;DHT22;23120;52.336;21.182;2023-02-01T00:32:54;2.70;99.90
17066;DHT22;23120;52.336;21.182;2023-02-01T00:35:21;2.70;99.90
17066;DHT22;23120;52.336;21.182;2023-02-01T00:37:51;2.70;99.90
17066;DHT22;23120;52.336;21.182;2023-02-01T00:40:26;2.70;99.90
17066;DHT22;23120;52.336;21.182;2023-02-01T00:43:00;2.70;99.90
17066;DHT22;23120;52.336;21.182;2023-02-01T00:45:35;2.80;99.90
17066;DHT22;23120;52.336;21.182;2023-02-01T00:48:08;2.80;99.90
17066;DHT22;23120;52.336;21.182;2023-02-01T00:50:35;2.80;99.90
17066;DHT22;23120;52.336;21.182;2023-02-01T00:53:02;2.80;99.90
17066;DHT22;23120;52.336;21.182;2023-02-01T00:55:31;2.80;99.90
17066;DHT22;23120;52.336;21.182;2023-02-01T00:58:05;2.80;99.90
17066;DHT22;23120;52.336;21.182;2023-02-01T01:00:35;2.80;99.90
17066;DHT22;23120;52.336;21.182;2023-02-01T01:03:28;2.80;99.90
17066;DHT22;23120;52.336;21.182;2023-02-01T01:06:20;2.80;99.90
17066;DHT22;23120;52.336;21.182;2023-02-01T01:09:07;2.80;99.90
17066;DHT22;23120;52.336;21.182;2023-02-01T01:12:00;2.80;99.90
17066;DHT22;23120;52.336;21.182;2023-02-01T01:15:12;2.80;99.90
17066;DHT22;23120;52.336;21.182;2023-02-01T01:17:57;2.90;99.90
17066;DHT22;23120;52.336;21.182;2023-02-01T01:20:40;2.80;99.90
17066;DHT22;23120;52.336;21.182;2023-02-01T01:32:14;2.90;99.90
17066;DHT22;23120;52.336;21.182;2023-02-01T01:34:41;2.80;99.90
17066;DHT22;23120;52.336;21.182;2023-02-01T01:37:55;2.80;99.90
17066;DHT22;23120;52.336;21.182;2023-02-01T01:55:20;2.90;99.90
17066;DHT22;23120;52.336;21.182;2023-02-01T01:57:51;2.90;99.90
17066;DHT22;23120;52.336;21.182;2023-02-01T02:00:31;2.90;99.90
17066;DHT22;23120;52.336;21.182;2023-02-01T02:03:07;2.90;99.90
17066;DHT22;23120;52.336;21.182;2023-02-01T02:05:35;2.90;99.90
17066;DHT22;23120;52.336;21.182;2023-02-01T02:08:02;2.80;99.90
17066;DHT22;23120;52.336;21.182;2023-02-01T02:10:31;2.90;99.90
17066;DHT22;23120;52.336;21.182;2023-02-01T02:13:15;2.90;99.90
17066;DHT22;23120;52.336;21.182;2023-02-01T02:15:46;2.90;99.90
17066;DHT22;23120;52.336;21.182;2023-02-01T02:18:20;2.90;99.90
17066;DHT22;23120;52.336;21.182;2023-02-01T02:21:07;2.90;99.90
17066;DHT22;23120;52.336;21.182;2023-02-01T02:24:08;2.90;99.90
17066;DHT22;23120;52.336;21.182;2023-02-01T02:26:53;2.90;99.90
17066;DHT22;23120;52.336;21.182;2023-02-01T02:29:44;2.90;99.90
17066;DHT22;23120;52.336;21.182;2023-02-01T02:32:35;2.90;99.90
17066;DHT22;23120;52.336;21.182;2023-02-01T02:35:08;2.90;99.90
17066;DHT22;23120;52.336;21.182;2023-02-01T02:37:48;2.90;99.90
17066;DHT22;23120;52.336;21.182;2023-02-01T02:43:11;2.90;99.90
17066;DHT22;23120;52.336;21.182;2023-02-01T02:46:12;2.80;99.90
17066;DHT22;23120;52.336;21.182;2023-02-01T02:49:02;2.80;99.90
17066;DHT22;23120;52.336;21.182;2023-02-01T02:51:37;2.80;99.90
17066;DHT22;23120;52.336;21.182;2023-02-01T02:54:32;2.80;99.90
17066;DHT22;23120;52.336;21.182;2023-02-01T02:57:17;2.80;99.90
17066;DHT22;23120;52.336;21.182;2023-02-01T03:00:08;2.80;99.90
17066;DHT22;23120;52.336;21.182;2023-02-01T03:03:02;2.80;99.90
17066;DHT22;23120;52.336;21.182;2023-02-01T03:05:49;2.80;99.90
17066;DHT22;23120;52.336;21.182;2023-02-01T03:08:19;2.80;99.90
17066;DHT22;23120;52.336;21.182;2023-02-01T03:11:03;2.80;99.90
17066;DHT22;23120;52.336;21.182;2023-02-01T03:13:36;2.80;99.90
17066;DHT22;23120;52.336;21.182;2023-02-01T03:16:07;2.80;99.90
17066;DHT22;23120;52.336;21.182;2023-02-01T03:18:44;2.80;99.90
17066;DHT22;23120;52.336;21.182;2023-02-01T03:21:20;2.80;99.90
17066;DHT22;23120;52.336;21.182;2023-02-01T03:24:38;2.80;99.90
17066;DHT22;23120;52.336;21.182;2023-02-01T03:27:47;2.80;99.90
17066;DHT22;23120;52.336;21.182;2023-02-01T03:31:03;2.80;99.90
17066;DHT22;23120;52.336;21.182;2023-02-01T03:33:30;2.80;99.90
17066;DHT22;23120;52.336;21.182;2023-02-01T03:36:12;2.80;99.90
17066;DHT22;23120;52.336;21.182;2023-02-01T03:38:48;2.90;99.90
17066;DHT22;23120;52.336;21.182;2023-02-01T03:41:24;2.90;99.90
17066;DHT22;23120;52.336;21.182;2023-02-01T03:44:08;2.80;99.90
17066;DHT22;23120;52.336;21.182;2023-02-01T03:46:46;2.90;99.90
17066;DHT22;23120;52.336;21.182;2023-02-01T03:49:19;2.90;99.90
17066;DHT22;23120;52.336;21.182;2023-02-01T03:56:17;2.90;99.90
17066;DHT22;23120;52.336;21.182;2023-02-01T03:58:53;2.90;99.90
17066;DHT22;23120;52.336;21.182;2023-02-01T04:01:30;2.90;99.90
17066;DHT22;23120;52.336;21.182;2023-02-01T04:03:58;2.90;99.90
17066;DHT22;23120;52.336;21.182;2023-02-01T04:06:25;2.90;99.90
17066;DHT22;23120;52.336;21.182;2023-02-01T04:08:57;2.90;99.90
17066;DHT22;23120;52.336;21.182;2023-02-01T04:11:39;2.90;99.90
17066;DHT22;23120;52.336;21.182;2023-02-01T04:14:07;2.90;99.90
17066;DHT22;23120;52.336;21.182;2023-02-01T04:16:35;2.90;99.90
17066;DHT22;23120;52.336;21.182;2023-02-01T04:19:09;2.90;99.90
17066;DHT22;23120;52.336;21.182;2023-02-01T04:21:39;2.90;99.90
17066;DHT22;23120;52.336;21.182;2023-02-01T04:24:09;2.90;99.90
17066;DHT22;23120;52.336;21.182;2023-02-01T04:26:43;2.90;99.90
17066;DHT22;23120;52.336;21.182;2023-02-01T04:29:18;2.90;99.90
17066;DHT22;23120;52.336;21.182;2023-02-01T04:31:46;2.90;99.90
17066;DHT22;23120;52.336;21.182;2023-02-01T04:34:23;2.90;99.90
17066;DHT22;23120;52.336;21.182;2023-02-01T04:36:53;2.90;99.90
17066;DHT22;23120;52.336;21.182;2023-02-01T04:39:22;2.90;99.90
17066;DHT22;23120;52.336;21.182;2023-02-01T04:41:55;2.90;99.90
17066;DHT22;23120;52.336;21.182;2023-02-01T04:44:32;2.90;99.90
17066;DHT22;23120;52.336;21.182;2023-02-01T04:47:01;2.90;99.90
17066;DHT22;23120;52.336;21.182;2023-02-01T04:49:28;2.90;99.90
17066;DHT22;23120;52.336;21.182;2023-02-01T04:51:55;2.90;99.90
17066;DHT22;23120;52.336;21.182;2023-02-01T04:54:21;2.80;99.90
17066;DHT22;23120;52.336;21.182;2023-02-01T04:56:48;2.80;99.90
17066;DHT22;23120;52.336;21.182;2023-02-01T04:59:15;2.80;99.90
17066;DHT22;23120;52.336;21.182;2023-02-01T05:01:43;2.80;99.90
17066;DHT22;23120;52.336;21.182;2023-02-01T05:04:12;2.80;99.90
17066;DHT22;23120;52.336;21.182;2023-02-01T05:06:40;2.80;99.90
17066;DHT22;23120;52.336;21.182;2023-02-01T05:09:07;2.80;99.90
17066;DHT22;23120;52.336;21.182;2023-02-01T05:11:41;2.80;99.90
17066;DHT22;23120;52.336;21.182;2023-02-01T05:14:30;2.80;99.90
17066;DHT22;23120;52.336;21.182;2023-02-01T05:16:59;2.80;99.90
17066;DHT22;23120;52.336;21.182;2023-02-01T05:19:26;2.80;99.90
17066;DHT22;23120;52.336;21.182;2023-02-01T05:21:53;2.80;99.90
17066;DHT22;23120;52.336;21.182;2023-02-01T05:24:20;2.80;99.90
17066;DHT22;23120;52.336;21.182;2023-02-01T05:26:47;2.80;99.90
17066;DHT22;23120;52.336;21.182;2023-02-01T05:29:33;2.80;99.90
17066;DHT22;23120;52.336;21.182;2023-02-01T05:32:04;2.80;99.90
17066;DHT22;23120;52.336;21.182;2023-02-01T05:34:35;2.80;99.90
17066;DHT22;23120;52.336;21.182;2023-02-01T05:37:05;2.80;99.90
17066;DHT22;23120;52.336;21.182;2023-02-01T05:39:34;2.80;99.90
17066;DHT22;23120;52.336;21.182;2023-02-01T05:42:01;2.80;99.90
17066;DHT22;23120;52.336;21.182;2023-02-01T05:44:28;2.80;99.90
17066;DHT22;23120;52.336;21.182;2023-02-01T05:46:55;2.90;99.90
17066;DHT22;23120;52.336;21.182;2023-02-01T05:49:23;2.80;99.90
17066;DHT22;23120;52.336;21.182;2023-02-01T05:51:52;2.80;99.90
17066;DHT22;23120;52.336;21.182;2023-02-01T05:54:22;2.80;99.90
17066;DHT22;23120;52.336;21.182;2023-02-01T05:56:49;2.90;99.90
17066;DHT22;23120;52.336;21.182;2023-02-01T05:59:16;2.80;99.90
17066;DHT22;23120;52.336;21.182;2023-02-01T06:01:48;2.80;99.90
17066;DHT22;23120;52.336;21.182;2023-02-01T06:04:15;2.80;99.90
17066;DHT22;23120;52.336;21.182;2023-02-01T06:06:46;2.80;99.90
17066;DHT22;23120;52.336;21.182;2023-02-01T06:09:16;2.80;99.90
17066;DHT22;23120;52.336;21.182;2023-02-01T06:11:44;2.90;99.90
17066;DHT22;23120;52.336;21.182;2023-02-01T06:14:11;2.80;99.90
17066;DHT22;23120;52.336;21.182;2023-02-01T06:16:38;2.90;99.90
17066;DHT22;23120;52.336;21.182;2023-02-01T06:19:05;2.90;99.90
17066;DHT22;23120;52.336;21.182;2023-02-01T06:21:32;2.80;99.90
17066;DHT22;23120;52.336;21.182;2023-02-01T06:24:00;2.90;99.90
17066;DHT22;23120;52.336;21.182;2023-02-01T06:26:27;2.90;99.90
17066;DHT22;23120;52.336;21.182;2023-02-01T06:28:54;2.90;99.90
17066;DHT22;23120;52.336;21.182;2023-02-01T06:31:22;2.80;99.90
17066;DHT22;23120;52.336;21.182;2023-02-01T06:33:59;2.90;99.90
17066;DHT22;23120;52.336;21.182;2023-02-01T06:36:39;2.80;99.90
17066;DHT22;23120;52.336;21.182;2023-02-01T06:39:11;2.80;99.90
17066;DHT22;23120;52.336;21.182;2023-02-01T06:41:46;2.80;99.90
17066;DHT22;23120;52.336;21.182;2023-02-01T06:44:21;2.80;99.90
17066;DHT22;23120;52.336;21.182;2023-02-01T06:46:48;2.80;99.90
17066;DHT22;23120;52.336;21.182;2023-02-01T06:49:21;2.80;99.90
17066;DHT22;23120;52.336;21.182;2023-02-01T06:51:53;2.80;99.90
17066;DHT22;23120;52.336;21.182;2023-02-01T06:54:36;2.80;99.90
17066;DHT22;23120;52.336;21.182;2023-02-01T06:57:06;2.90;99.90
17066;DHT22;23120;52.336;21.182;2023-02-01T06:59:33;2.90;99.90
17066;DHT22;23120;52.336;21.182;2023-02-01T07:02:34;2.90;99.90
17066;DHT22;23120;52.336;21.182;2023-02-01T07:05:03;2.90;99.90
17066;DHT22;23120;52.336;21.182;2023-02-01T07:07:30;2.80;99.90
17066;DHT22;23120;52.336;21.182;2023-02-01T07:09:58;2.80;99.90
17066;DHT22;23120;52.336;21.182;2023-02-01T07:12:25;2.80;99.90
17066;DHT22;23120;52.336;21.182;2023-02-01T07:14:52;2.80;99.90
17066;DHT22;23120;52.336;21.182;2023-02-01T07:17:23;2.80;99.90
17066;DHT22;23120;52.336;21.182;2023-02-01T07:19:51;2.90;99.90
17066;DHT22;23120;52.336;21.182;2023-02-01T07:23:07;2.90;99.90
17066;DHT22;23120;52.336;21.182;2023-02-01T07:25:37;2.80;99.90
17066;DHT22;23120;52.336;21.182;2023-02-01T07:28:07;2.90;99.90
17066;DHT22;23120;52.336;21.182;2023-02-01T07:30:40;2.90;99.90
17066;DHT22;23120;52.336;21.182;2023-02-01T07:33:07;2.90;99.90
17066;DHT22;23120;52.336;21.182;2023-02-01T07:35:44;2.90;99.90
17066;DHT22;23120;52.336;21.182;2023-02-01T07:38:11;2.90;99.90
17066;DHT22;23120;52.336;21.182;2023-02-01T07:40:39;2.90;99.90
17066;DHT22;23120;52.336;21.182;2023-02-01T07:43:12;2.90;99.90
17066;DHT22;23120;52.336;21.182;2023-02-01T07:45:41;2.90;99.90
17066;DHT22;23120;52.336;21.182;2023-02-01T07:48:11;2.90;99.90
17066;DHT22;23120;52.336;21.182;2023-02-01T07:50:40;2.90;99.90
17066;DHT22;23120;52.336;21.182;2023-02-01T07:53:36;2.90;99.90
17066;DHT22;23120;52.336;21.182;2023-02-01T07:56:10;2.90;99.90
17066;DHT22;23120;52.336;21.182;2023-02-01T07:58:37;2.90;99.90
17066;DHT22;23120;52.336;21.182;2023-02-01T08:01:04;2.90;99.90
17066;DHT22;23120;52.336;21.182;2023-02-01T08:03:46;2.90;99.90
17066;DHT22;23120;52.336;21.182;2023-02-01T08:06:13;2.90;99.90
17066;DHT22;23120;52.336;21.182;2023-02-01T08:08:39;2.90;99.90
17066;DHT22;23120;52.336;21.182;2023-02-01T08:11:09;3.00;99.90
17066;DHT22;23120;52.336;21.182;2023-02-01T08:13:36;3.00;99.90
17066;DHT22;23120;52.336;21.182;2023-02-01T08:16:05;3.00;99.90
17066;DHT22;23120;52.336;21.182;2023-02-01T08:18:32;3.00;99.90
17066;DHT22;23120;52.336;21.182;2023-02-01T08:21:03;3.00;99.90
17066;DHT22;23120;52.336;21.182;2023-02-01T08:23:30;3.00;99.90
17066;DHT22;23120;52.336;21.182;2023-02-01T08:26:05;3.00;99.90
17066;DHT22;23120;52.336;21.182;2023-02-01T08:28:34;3.00;99.90
17066;DHT22;23120;52.336;21.182;2023-02-01T08:31:05;3.00;99.90
17066;DHT22;23120;52.336;21.182;2023-02-01T08:33:33;3.00;99.90
17066;DHT22;23120;52.336;21.182;2023-02-01T08:36:01;3.00;99.90
17066;DHT22;23120;52.336;21.182;2023-02-01T08:38:28;3.00;99.90
17066;DHT22;23120;52.336;21.182;2023-02-01T08:40:55;3.10;99.90
17066;DHT22;23120;52.336;21.182;2023-02-01T08:43:22;3.10;99.90
17066;DHT22;23120;52.336;21.182;2023-02-01T08:45:54;3.10;99.90
17066;DHT22;23120;52.336;21.182;2023-02-01T08:48:21;3.10;99.90
17066;DHT22;23120;52.336;21.182;2023-02-01T08:50:48;3.10;99.90
17066;DHT22;23120;52.336;21.182;2023-02-01T08:53:14;3.10;99.90
17066;DHT22;23120;52.336;21.182;2023-02-01T08:55:42;3.20;99.90
17066;DHT22;23120;52.336;21.182;2023-02-01T08:58:09;3.10;99.90
17066;DHT22;23120;52.336;21.182;2023-02-01T09:00:35;3.20;99.90
17066;DHT22;23120;52.336;21.182;2023-02-01T09:03:04;3.20;99.90
17066;DHT22;23120;52.336;21.182;2023-02-01T09:05:30;3.20;99.90
17066;DHT22;23120;52.336;21.182;2023-02-01T09:07:57;3.20;99.90
17066;DHT22;23120;52.336;21.182;2023-02-01T09:10:24;3.20;99.90
17066;DHT22;23120;52.336;21.182;2023-02-01T09:12:51;3.20;99.90
17066;DHT22;23120;52.336;21.182;2023-02-01T09:15:18;3.20;99.90
17066;DHT22;23120;52.336;21.182;2023-02-01T09:17:45;3.20;99.90
17066;DHT22;23120;52.336;21.182;2023-02-01T09:20:13;3.20;99.90
17066;DHT22;23120;52.336;21.182;2023-02-01T09:22:41;3.30;99.90
17066;DHT22;23120;52.336;21.182;2023-02-01T09:25:10;3.20;99.90
17066;DHT22;23120;52.336;21.182;2023-02-01T09:27:37;3.20;99.90
17066;DHT22;23120;52.336;21.182;2023-02-01T09:30:05;3.20;99.90
17066;DHT22;23120;52.336;21.182;2023-02-01T09:32:32;3.20;99.90
17066;DHT22;23120;52.336;21.182;2023-02-01T09:34:59;3.20;99.90
17066;DHT22;23120;52.336;21.182;2023-02-01T09:37:27;3.30;99.90
17066;DHT22;23120;52.336;21.182;2023-02-01T09:39:54;3.20;99.90
17066;DHT22;23120;52.336;21.182;2023-02-01T09:42:34;3.20;99.90
17066;DHT22;23120;52.336;21.182;2023-02-01T09:45:20;3.20;99.90
17066;DHT22;23120;52.336;21.182;2023-02-01T09:47:53;3.20;99.90
17066;DHT22;23120;52.336;21.182;2023-02-01T09:50:26;3.30;99.90
17066;DHT22;23120;52.336;21.182;2023-02-01T09:52:59;3.30;99.90
17066;DHT22;23120;52.336;21.182;2023-02-01T09:55:36;3.30;99.90
17066;DHT22;23120;52.336;21.182;2023-02-01T09:58:07;3.30;99.90
17066;DHT22;23120;52.336;21.182;2023-02-01T10:00:36;3.30;99.90
17066;DHT22;23120;52.336;21.182;2023-02-01T10:03:03;3.30;99.90
17066;DHT22;23120;52.336;21.182;2023-02-01T10:05:50;3.30;99.90
17066;DHT22;23120;52.336;21.182;2023-02-01T10:08:28;3.40;99.90
17066;DHT22;23120;52.336;21.182;2023-02-01T10:10:58;3.40;99.90
17066;DHT22;23120;52.336;21.182;2023-02-01T10:13:41;3.40;99.90
17066;DHT22;23120;52.336;21.182;2023-02-01T10:16:17;3.40;99.90
17066;DHT22;23120;52.336;21.182;2023-02-01T10:19:07;3.40;99.90
17066;DHT22;23120;52.336;21.182;2023-02-01T10:21:46;3.40;99.90
17066;DHT22;23120;52.336;21.182;2023-02-01T10:24:33;3.40;99.90
17066;DHT22;23120;52.336;21.182;2023-02-01T10:27:02;3.40;99.90
17066;DHT22;23120;52.336;21.182;2023-02-01T10:29:37;3.40;99.90
17066;DHT22;23120;52.336;21.182;2023-02-01T10:32:12;3.40;99.90
17066;DHT22;23120;52.336;21.182;2023-02-01T10:34:39;3.40;99.90
17066;DHT22;23120;52.336;21.182;2023-02-01T10:37:18;3.50;99.90
17066;DHT22;23120;52.336;21.182;2023-02-01T10:39:48;3.40;99.90
17066;DHT22;23120;52.336;21.182;2023-02-01T10:42:18;3.40;99.90
17066;DHT22;23120;52.336;21.182;2023-02-01T10:44:46;3.40;99.90
17066;DHT22;23120;52.336;21.182;2023-02-01T10:47:14;3.40;99.90
17066;DHT22;23120;52.336;21.182;2023-02-01T10:49:45;3.40;99.90
17066;DHT22;23120;52.336;21.182;2023-02-01T10:52:17;3.50;99.90
17066;DHT22;23120;52.336;21.182;2023-02-01T10:54:47;3.50;99.90
17066;DHT22;23120;52.336;21.182;2023-02-01T10:57:21;3.50;99.90
17066;DHT22;23120;52.336;21.182;2023-02-01T10:59:49;3.50;99.90
17066;DHT22;23120;52.336;21.182;2023-02-01T11:02:30;3.50;99.90
17066;DHT22;23120;52.336;21.182;2023-02-01T11:05:02;3.50;99.90
17066;DHT22;23120;52.336;21.182;2023-02-01T11:07:31;3.50;99.90
17066;DHT22;23120;52.336;21.182;2023-02-01T11:09:59;3.50;99.90
17066;DHT22;23120;52.336;21.182;2023-02-01T11:12:30;3.60;99.90
17066;DHT22;23120;52.336;21.182;2023-02-01T11:15:03;3.50;99.90
17066;DHT22;23120;52.336;21.182;2023-02-01T11:17:34;3.60;99.90
17066;DHT22;23120;52.336;21.182;2023-02-01T11:20:04;3.50;99.90
17066;DHT22;23120;52.336;21.182;2023-02-01T11:22:32;3.60;99.90
17066;DHT22;23120;52.336;21.182;2023-02-01T11:25:01;3.60;99.90
17066;DHT22;23120;52.336;21.182;2023-02-01T11:27:34;3.60;99.90
17066;DHT22;23120;52.336;21.182;2023-02-01T11:30:02;3.60;99.90
17066;DHT22;23120;52.336;21.182;2023-02-01T11:32:30;3.60;99.90
17066;DHT22;23120;52.336;21.182;2023-02-01T11:34:59;3.70;99.90
17066;DHT22;23120;52.336;21.182;2023-02-01T11:37:29;3.70;99.90
17066;DHT22;23120;52.336;21.182;2023-02-01T11:39:58;3.70;99.90
17066;DHT22;23120;52.336;21.182;2023-02-01T11:42:28;3.70;99.90
17066;DHT22;23120;52.336;21.182;2023-02-01T11:45:17;3.70;99.90
17066;DHT22;23120;52.336;21.182;2023-02-01T11:47:44;3.70;99.90
17066;DHT22;23120;52.336;21.182;2023-02-01T11:50:15;3.70;99.90
17066;DHT22;23120;52.336;21.182;2023-02-01T11:53:03;3.70;99.90
17066;DHT22;23120;52.336;21.182;2023-02-01T11:55:46;3.70;99.90
17066;DHT22;23120;52.336;21.182;2023-02-01T11:58:53;3.70;99.90
17066;DHT22;23120;52.336;21.182;2023-02-01T12:01:34;3.70;99.90
17066;DHT22;23120;52.336;21.182;2023-02-01T12:04:19;3.80;99.90
17066;DHT22;23120;52.336;21.182;2023-02-01T12:06:51;3.70;99.90
17066;DHT22;23120;52.336;21.182;2023-02-01T12:09:40;3.70;99.90
17066;DHT22;23120;52.336;21.182;2023-02-01T12:12:17;3.80;99.90
17066;DHT22;23120;52.336;21.182;2023-02-01T12:14:59;3.80;99.90
17066;DHT22;23120;52.336;21.182;2023-02-01T12:17:46;3.80;99.90
17066;DHT22;23120;52.336;21.182;2023-02-01T12:20:37;3.80;99.90
17066;DHT22;23120;52.336;21.182;2023-02-01T12:23:58;3.80;99.90
17066;DHT22;23120;52.336;21.182;2023-02-01T12:27:11;3.80;99.90
17066;DHT22;23120;52.336;21.182;2023-02-01T12:29:59;3.90;99.90
17066;DHT22;23120;52.336;21.182;2023-02-01T12:32:39;3.80;99.90
17066;DHT22;23120;52.336;21.182;2023-02-01T12:35:38;3.80;99.90
17066;DHT22;23120;52.336;21.182;2023-02-01T12:38:21;3.80;99.90
17066;DHT22;23120;52.336;21.182;2023-02-01T12:41:00;3.90;99.90
17066;DHT22;23120;52.336;21.182;2023-02-01T12:43:39;3.80;99.90
17066;DHT22;23120;52.336;21.182;2023-02-01T12:46:15;3.80;99.90
17066;DHT22;23120;52.336;21.182;2023-02-01T12:48:55;3.90;99.90
17066;DHT22;23120;52.336;21.182;2023-02-01T12:51:26;3.90;99.90
17066;DHT22;23120;52.336;21.182;2023-02-01T12:53:57;3.90;99.90
17066;DHT22;23120;52.336;21.182;2023-02-01T12:56:32;3.90;99.90
17066;DHT22;23120;52.336;21.182;2023-02-01T12:59:04;3.90;99.90
17066;DHT22;23120;52.336;21.182;2023-02-01T13:01:37;3.90;99.90
17066;DHT22;23120;52.336;21.182;2023-02-01T13:04:11;4.00;99.90
17066;DHT22;23120;52.336;21.182;2023-02-01T13:06:44;4.00;99.90
17066;DHT22;23120;52.336;21.182;2023-02-01T13:09:20;4.00;99.90
17066;DHT22;23120;52.336;21.182;2023-02-01T13:11:49;4.00;99.90
17066;DHT22;23120;52.336;21.182;2023-02-01T13:14:24;4.00;99.90
17066;DHT22;23120;52.336;21.182;2023-02-01T13:17:01;4.10;99.90
17066;DHT22;23120;52.336;21.182;2023-02-01T13:19:48;4.10;99.90
17066;DHT22;23120;52.336;21.182;2023-02-01T13:22:20;4.10;99.90
17066;DHT22;23120;52.336;21.182;2023-02-01T13:24:58;4.10;99.90
17066;DHT22;23120;52.336;21.182;2023-02-01T13:27:34;4.20;99.90
17066;DHT22;23120;52.336;21.182;2023-02-01T13:30:11;4.10;99.90
17066;DHT22;23120;52.336;21.182;2023-02-01T13:36:24;4.20;99.90
17066;DHT22;23120;52.336;21.182;2023-02-01T13:39:29;4.20;99.90
17066;DHT22;23120;52.336;21.182;2023-02-01T13:42:04;4.20;99.90
17066;DHT22;23120;52.336;21.182;2023-02-01T13:44:34;4.20;99.90
17066;DHT22;23120;52.336;21.182;2023-02-01T13:47:27;4.20;99.90
17066;DHT22;23120;52.336;21.182;2023-02-01T13:49:59;4.20;99.90
17066;DHT22;23120;52.336;21.182;2023-02-01T13:52:50;4.20;99.90
17066;DHT22;23120;52.336;21.182;2023-02-01T13:56:01;4.20;99.90
17066;DHT22;23120;52.336;21.182;2023-02-01T13:59:52;4.10;99.90
17066;DHT22;23120;52.336;21.182;2023-02-01T14:03:13;4.20;99.90
17066;DHT22;23120;52.336;21.182;2023-02-01T14:06:01;4.20;99.90
17066;DHT22;23120;52.336;21.182;2023-02-01T14:08:45;4.10;99.90
17066;DHT22;23120;52.336;21.182;2023-02-01T14:11:33;4.10;99.90
17066;DHT22;23120;52.336;21.182;2023-02-01T14:14:40;4.10;99.90
17066;DHT22;23120;52.336;21.182;2023-02-01T14:17:35;4.10;99.90
17066;DHT22;23120;52.336;21.182;2023-02-01T14:23:26;4.10;99.90
17066;DHT22;23120;52.336;21.182;2023-02-01T14:26:09;4.10;99.90
17066;DHT22;23120;52.336;21.182;2023-02-01T14:28:42;4.10;99.90
17066;DHT22;23120;52.336;21.182;2023-02-01T14:31:32;4.10;99.90
17066;DHT22;23120;52.336;21.182;2023-02-01T14:34:18;4.10;99.90
17066;DHT22;23120;52.336;21.182;2023-02-01T14:36:50;4.10;99.90
17066;DHT22;23120;52.336;21.182;2023-02-01T14:39:29;4.10;99.90
17066;DHT22;23120;52.336;21.182;2023-02-01T14:42:03;4.10;99.90
17066;DHT22;23120;52.336;21.182;2023-02-01T14:44:35;4.10;99.90
17066;DHT22;23120;52.336;21.182;2023-02-01T14:47:28;4.10;99.90
17066;DHT22;23120;52.336;21.182;2023-02-01T14:50:11;4.10;99.90
17066;DHT22;23120;52.336;21.182;2023-02-01T14:52:45;4.10;99.90
17066;DHT22;23120;52.336;21.182;2023-02-01T14:55:17;4.10;99.90
17066;DHT22;23120;52.336;21.182;2023-02-01T14:57:50;4.10;99.90
17066;DHT22;23120;52.336;21.182;2023-02-01T15:00:22;4.10;99.90
17066;DHT22;23120;52.336;21.182;2023-02-01T15:02:51;4.10;99.90
17066;DHT22;23120;52.336;21.182;2023-02-01T15:05:30;4.10;99.90
17066;DHT22;23120;52.336;21.182;2023-02-01T15:08:15;4.10;99.90
17066;DHT22;23120;52.336;21.182;2023-02-01T15:10:45;4.10;99.90
17066;DHT22;23120;52.336;21.182;2023-02-01T15:13:20;4.10;99.90
17066;DHT22;23120;52.336;21.182;2023-02-01T15:16:09;4.10;99.90
17066;DHT22;23120;52.336;21.182;2023-02-01T15:19:12;4.00;99.90
17066;DHT22;23120;52.336;21.182;2023-02-01T15:22:32;4.00;99.90
17066;DHT22;23120;52.336;21.182;2023-02-01T15:25:30;4.00;99.90
17066;DHT22;23120;52.336;21.182;2023-02-01T15:28:53;4.00;99.90
17066;DHT22;23120;52.336;21.182;2023-02-01T15:31:42;4.00;99.90
17066;DHT22;23120;52.336;21.182;2023-02-01T15:35:42;4.10;99.90
17066;DHT22;23120;52.336;21.182;2023-02-01T15:41:52;4.00;99.90
17066;DHT22;23120;52.336;21.182;2023-02-01T15:44:39;4.10;99.90
17066;DHT22;23120;52.336;21.182;2023-02-01T15:47:32;4.00;99.90
17066;DHT22;23120;52.336;21.182;2023-02-01T15:50:01;4.00;99.90
17066;DHT22;23120;52.336;21.182;2023-02-01T15:55:19;4.00;99.90
17066;DHT22;23120;52.336;21.182;2023-02-01T15:57:55;4.00;99.90
17066;DHT22;23120;52.336;21.182;2023-02-01T16:01:06;4.00;99.90
17066;DHT22;23120;52.336;21.182;2023-02-01T16:03:46;4.00;99.90
17066;DHT22;23120;52.336;21.182;2023-02-01T16:06:30;4.00;99.90
17066;DHT22;23120;52.336;21.182;2023-02-01T16:09:05;4.00;99.90
17066;DHT22;23120;52.336;21.182;2023-02-01T16:11:41;4.00;99.90
17066;DHT22;23120;52.336;21.182;2023-02-01T16:14:11;4.00;99.90
17066;DHT22;23120;52.336;21.182;2023-02-01T16:16:48;4.00;99.90
17066;DHT22;23120;52.336;21.182;2023-02-01T16:19:15;4.00;99.90
17066;DHT22;23120;52.336;21.182;2023-02-01T16:21:42;4.00;99.90
17066;DHT22;23120;52.336;21.182;2023-02-01T16:24:09;4.00;99.90
17066;DHT22;23120;52.336;21.182;2023-02-01T16:26:42;4.00;99.90
17066;DHT22;23120;52.336;21.182;2023-02-01T16:29:09;4.00;99.90
17066;DHT22;23120;52.336;21.182;2023-02-01T16:31:51;4.00;99.90
17066;DHT22;23120;52.336;21.182;2023-02-01T16:34:18;3.90;99.90
17066;DHT22;23120;52.336;21.182;2023-02-01T16:36:47;4.00;99.90
17066;DHT22;23120;52.336;21.182;2023-02-01T16:39:17;4.00;99.90
17066;DHT22;23120;52.336;21.182;2023-02-01T16:41:44;4.00;99.90
17066;DHT22;23120;52.336;21.182;2023-02-01T16:44:17;4.00;99.90
17066;DHT22;23120;52.336;21.182;2023-02-01T16:46:53;4.00;99.90
17066;DHT22;23120;52.336;21.182;2023-02-01T16:49:21;4.00;99.90
17066;DHT22;23120;52.336;21.182;2023-02-01T16:51:55;4.00;99.90
17066;DHT22;23120;52.336;21.182;2023-02-01T16:54:23;4.00;99.90
17066;DHT22;23120;52.336;21.182;2023-02-01T16:56:52;4.00;99.90
17066;DHT22;23120;52.336;21.182;2023-02-01T16:59:19;4.00;99.90
17066;DHT22;23120;52.336;21.182;2023-02-01T17:01:47;3.90;99.90
17066;DHT22;23120;52.336;21.182;2023-02-01T17:04:18;3.90;99.90
17066;DHT22;23120;52.336;21.182;2023-02-01T17:06:46;3.90;99.90
17066;DHT22;23120;52.336;21.182;2023-02-01T17:09:14;3.90;99.90